createdAt,value
2018-05-02T00:01:58.432Z,78.00
2018-05-02T00:04:26.619Z,78.30
2018-05-02T00:06:54.779Z,78.40
2018-05-02T00:09:23.397Z,78.00
2018-05-02T00:11:52.549Z,79.00
2018-05-02T00:14:21.075Z,78.40
2018-05-02T00:16:49.496Z,78.80
2018-05-02T00:19:19.070Z,78.50
2018-05-02T00:21:47.487Z,78.70
2018-05-02T00:24:16.522Z,78.70
2018-05-02T00:26:45.692Z,79.40
2018-05-02T00:29:13.891Z,78.70
2018-05-02T00:31:42.054Z,79.20
2018-05-02T00:34:11.978Z,78.50
2018-05-02T00:36:40.502Z,78.50
2018-05-02T00:39:08.696Z,79.30
2018-05-02T00:41:37.362Z,78.10
2018-05-02T00:44:06.547Z,78.80
2018-05-02T00:46:35.699Z,80.10
2018-05-02T00:49:13.907Z,80.10
2018-05-02T00:51:42.328Z,80.10
2018-05-02T00:54:11.261Z,80.10
2018-05-02T00:56:40.412Z,78.70
2018-05-02T00:59:08.574Z,79.30
2018-05-02T01:01:36.780Z,79.30
2018-05-02T01:04:05.338Z,79.40
2018-05-02T01:06:33.510Z,79.70
2018-05-02T01:09:03.469Z,80.50
2018-05-02T01:11:31.635Z,79.30
2018-05-02T01:14:00.103Z,79.90
2018-05-02T01:16:29.359Z,79.90
2018-05-02T01:18:57.510Z,79.00
2018-05-02T01:21:27.055Z,79.80
2018-05-02T01:23:57.115Z,80.20
2018-05-02T01:26:25.539Z,80.00
2018-05-02T01:28:53.973Z,80.20
2018-05-02T01:31:23.112Z,80.00
2018-05-02T01:33:51.755Z,80.10
2018-05-02T01:36:20.138Z,80.80
2018-05-02T01:38:49.537Z,81.00
2018-05-02T01:41:17.674Z,80.10
2018-05-02T01:43:47.323Z,80.80
2018-05-02T01:46:15.950Z,80.40
2018-05-02T01:48:56.347Z,81.20
2018-05-02T01:51:24.539Z,82.00
2018-05-02T01:53:53.647Z,82.60
2018-05-02T01:56:22.783Z,81.70
2018-05-02T01:58:51.779Z,82.00
2018-05-02T02:01:20.783Z,81.90
2018-05-02T02:03:49.766Z,82.90
2018-05-02T02:06:18.465Z,82.80
2018-05-02T02:08:46.666Z,82.40
2018-05-02T02:11:15.504Z,81.90
2018-05-02T02:13:44.110Z,81.30
2018-05-02T02:16:12.566Z,81.60
2018-05-02T02:18:40.978Z,82.40
2018-05-02T02:21:10.037Z,82.60
2018-05-02T02:23:38.630Z,81.60
2018-05-02T02:26:06.808Z,82.40
2018-05-02T02:28:36.138Z,83.20
2018-05-02T02:31:04.769Z,83.10
2018-05-02T02:33:33.256Z,83.40
2018-05-02T02:36:02.113Z,84.20
2018-05-02T02:38:32.188Z,84.30
2018-05-02T02:41:00.852Z,83.60
2018-05-02T02:43:29.340Z,83.70
2018-05-02T02:45:57.506Z,84.30
2018-05-02T02:48:26.638Z,84.00
2018-05-02T02:50:56.490Z,84.50
2018-05-02T02:53:25.151Z,85.20
2018-05-02T02:55:53.781Z,85.30
2018-05-02T02:58:22.934Z,85.20
2018-05-02T03:00:51.356Z,85.40
2018-05-02T03:03:19.499Z,85.80
2018-05-02T03:05:48.439Z,86.60
2018-05-02T03:08:16.646Z,86.30
2018-05-02T03:10:45.607Z,87.10
2018-05-02T03:13:13.792Z,87.00
2018-05-02T03:15:41.958Z,86.50
2018-05-02T03:18:10.582Z,86.80
2018-05-02T03:20:38.746Z,87.10
2018-05-02T03:23:08.387Z,87.30
2018-05-02T03:25:36.566Z,87.30
2018-05-02T03:28:04.783Z,87.50
2018-05-02T03:30:33.211Z,86.50
2018-05-02T03:33:01.383Z,86.90
2018-05-02T03:35:32.372Z,87.30
2018-05-02T03:38:00.555Z,87.10
2018-05-02T03:40:28.773Z,86.70
2018-05-02T03:42:57.856Z,85.50
2018-05-02T03:45:26.592Z,87.30
2018-05-02T03:47:55.414Z,86.80
2018-05-02T03:50:25.001Z,86.30
2018-05-02T03:52:53.608Z,86.90
2018-05-02T03:55:21.770Z,87.20
2018-05-02T03:57:51.613Z,87.00
2018-05-02T04:00:32.118Z,86.20
2018-05-02T04:03:12.487Z,86.00
2018-05-02T04:05:53.086Z,86.70
2018-05-02T04:08:21.550Z,86.60
2018-05-02T04:10:49.695Z,86.70
2018-05-02T04:13:18.255Z,86.80
2018-05-02T04:15:47.324Z,86.40
2018-05-02T04:18:17.533Z,86.50
2018-05-02T04:20:46.163Z,86.40
2018-05-02T04:23:14.584Z,86.60
2018-05-02T04:25:43.282Z,85.30
2018-05-02T04:28:11.468Z,84.30
2018-05-02T04:30:40.056Z,84.80
2018-05-02T04:33:08.688Z,84.30
2018-05-02T04:35:38.461Z,84.40
2018-05-02T04:38:08.557Z,84.20
2018-05-02T04:40:37.605Z,84.20
2018-05-02T04:43:05.767Z,84.70
2018-05-02T04:45:34.343Z,84.00
2018-05-02T04:48:02.527Z,82.30
2018-05-02T04:50:30.720Z,82.20
2018-05-02T04:52:59.256Z,82.90
2018-05-02T04:55:27.467Z,82.70
2018-05-02T04:57:56.031Z,82.90
2018-05-02T05:00:25.172Z,83.00
2018-05-02T05:02:53.342Z,83.70
2018-05-02T05:05:21.514Z,83.10
2018-05-02T05:07:51.978Z,83.20
2018-05-02T05:10:20.839Z,81.70
2018-05-02T05:12:49.277Z,81.40
2018-05-02T05:15:17.694Z,82.10
2018-05-02T05:17:46.429Z,81.30
2018-05-02T05:20:15.461Z,81.60
2018-05-02T05:22:43.642Z,81.40
2018-05-02T05:25:12.737Z,80.40
2018-05-02T05:27:42.307Z,80.10
2018-05-02T05:30:10.458Z,80.80
2018-05-02T05:32:38.636Z,78.70
2018-05-02T05:35:07.560Z,78.90
2018-05-02T05:37:35.734Z,78.40
2018-05-02T05:40:04.309Z,79.00
2018-05-02T05:42:33.147Z,76.50
2018-05-02T05:45:02.367Z,76.50
2018-05-02T05:47:30.623Z,75.70
2018-05-02T05:49:59.572Z,76.80
2018-05-02T05:52:28.087Z,74.90
2018-05-02T05:54:56.218Z,75.00
2018-05-02T05:57:26.141Z,73.90
2018-05-02T05:59:54.315Z,73.80
2018-05-02T06:02:23.845Z,74.30
2018-05-02T06:04:52.287Z,74.10
2018-05-02T06:07:20.410Z,74.20
2018-05-02T06:09:50.480Z,73.30
2018-05-02T06:12:18.902Z,70.60
2018-05-02T06:14:47.637Z,71.40
2018-05-02T06:17:15.771Z,71.20
2018-05-02T06:19:44.719Z,69.40
2018-05-02T06:22:13.318Z,68.90
2018-05-02T06:24:41.949Z,67.40
2018-05-02T06:27:10.647Z,67.90
2018-05-02T06:29:39.104Z,68.70
2018-05-02T06:32:07.244Z,67.10
2018-05-02T06:34:36.191Z,68.50
2018-05-02T06:37:05.517Z,67.70
2018-05-02T06:39:34.150Z,67.70
2018-05-02T06:42:02.291Z,67.70
2018-05-02T06:44:32.018Z,66.20
2018-05-02T06:47:00.195Z,66.50
2018-05-02T06:49:29.608Z,65.40
2018-05-02T06:51:58.028Z,64.20
2018-05-02T06:54:27.181Z,65.70
2018-05-02T06:56:56.163Z,65.00
2018-05-02T06:59:25.289Z,65.00
2018-05-02T07:01:54.220Z,64.20
2018-05-02T07:04:22.643Z,62.60
2018-05-02T07:06:51.480Z,63.20
2018-05-02T07:09:20.309Z,63.70
2018-05-02T07:11:48.487Z,63.80
2018-05-02T07:14:18.206Z,61.70
2018-05-02T07:16:46.735Z,61.70
2018-05-02T07:19:15.767Z,58.60
2018-05-02T07:21:44.195Z,59.20
2018-05-02T07:24:13.314Z,60.00
2018-05-02T07:26:41.495Z,60.80
2018-05-02T07:29:10.393Z,58.70
2018-05-02T07:31:38.575Z,59.10
2018-05-02T07:34:07.247Z,57.40
2018-05-02T07:36:36.096Z,57.90
2018-05-02T07:39:06.457Z,58.60
2018-05-02T07:41:34.663Z,57.10
2018-05-02T07:44:03.634Z,57.30
2018-05-02T07:46:32.210Z,57.80
2018-05-02T07:49:00.392Z,58.30
2018-05-02T07:51:29.741Z,57.20
2018-05-02T07:53:58.271Z,58.10
2018-05-02T07:56:26.470Z,57.80
2018-05-02T07:58:55.527Z,55.30
2018-05-02T08:01:24.958Z,55.90
2018-05-02T08:03:54.136Z,55.70
2018-05-02T08:06:23.119Z,56.10
2018-05-02T08:08:52.873Z,56.00
2018-05-02T08:11:21.502Z,55.70
2018-05-02T08:13:50.310Z,55.90
2018-05-02T08:16:19.078Z,55.90
2018-05-02T08:18:47.223Z,54.80
2018-05-02T08:21:15.403Z,55.30
2018-05-02T08:23:44.535Z,54.40
2018-05-02T08:26:13.514Z,53.90
2018-05-02T08:28:43.061Z,53.40
2018-05-02T08:31:11.203Z,54.10
2018-05-02T08:33:39.800Z,53.90
2018-05-02T08:36:08.186Z,54.50
2018-05-02T08:38:37.260Z,52.70
2018-05-02T08:41:06.526Z,52.80
2018-05-02T08:43:34.947Z,52.50
2018-05-02T08:46:03.139Z,52.70
2018-05-02T08:48:31.788Z,52.50
2018-05-02T08:51:00.418Z,50.80
2018-05-02T08:53:28.562Z,50.50
2018-05-02T08:55:58.083Z,50.70
2018-05-02T08:58:26.621Z,48.90
2018-05-02T09:00:55.463Z,47.70
2018-05-02T09:03:24.091Z,48.20
2018-05-02T09:05:52.616Z,48.20
2018-05-02T09:08:21.109Z,48.50
2018-05-02T09:10:50.178Z,48.90
2018-05-02T09:13:18.616Z,49.30
2018-05-02T09:15:47.203Z,50.00
2018-05-02T09:18:15.411Z,48.40
2018-05-02T09:20:44.487Z,47.20
2018-05-02T09:23:12.922Z,47.80
2018-05-02T09:25:43.219Z,45.50
2018-05-02T09:28:11.947Z,45.50
2018-05-02T09:30:40.128Z,47.80
2018-05-02T09:33:08.759Z,48.00
2018-05-02T09:35:37.897Z,45.10
2018-05-02T09:38:06.374Z,46.50
2018-05-02T09:40:34.759Z,45.60
2018-05-02T09:43:03.322Z,44.70
2018-05-02T09:45:31.459Z,45.30
2018-05-02T09:48:00.415Z,44.30
2018-05-02T09:50:29.447Z,44.50
2018-05-02T09:52:58.260Z,44.40
2018-05-02T09:55:27.201Z,45.40
2018-05-02T09:57:55.370Z,45.60
2018-05-02T10:00:25.193Z,45.00
2018-05-02T10:02:53.483Z,45.00
2018-05-02T10:05:22.139Z,44.80
2018-05-02T10:07:50.561Z,44.90
2018-05-02T10:10:19.818Z,45.50
2018-05-02T10:12:48.099Z,46.20
2018-05-02T10:15:16.183Z,45.90
2018-05-02T10:17:44.442Z,44.80
2018-05-02T10:20:12.980Z,44.90
2018-05-02T10:22:42.015Z,43.10
2018-05-02T10:25:10.411Z,43.90
2018-05-02T10:27:39.287Z,45.40
2018-05-02T10:30:07.709Z,41.70
2018-05-02T10:32:36.094Z,43.00
2018-05-02T10:35:04.656Z,42.40
2018-05-02T10:37:33.077Z,41.30
2018-05-02T10:40:03.067Z,43.00
2018-05-02T10:42:31.207Z,41.70
2018-05-02T10:44:59.594Z,42.90
2018-05-02T10:47:28.334Z,42.50
2018-05-02T10:49:57.363Z,41.50
2018-05-02T10:52:25.698Z,44.60
2018-05-02T10:54:54.427Z,43.20
2018-05-02T10:57:22.956Z,44.30
2018-05-02T10:59:51.094Z,43.60
2018-05-02T11:02:19.587Z,44.20
2018-05-02T11:04:48.217Z,43.90
2018-05-02T11:07:16.356Z,43.80
2018-05-02T11:09:46.842Z,43.60
2018-05-02T11:12:15.465Z,42.30
2018-05-02T11:14:44.007Z,44.20
2018-05-02T11:17:13.248Z,44.50
2018-05-02T11:19:42.386Z,42.40
2018-05-02T11:22:11.030Z,43.10
2018-05-02T11:24:40.171Z,45.10
2018-05-02T11:27:09.323Z,42.90
2018-05-02T11:29:37.756Z,43.40
2018-05-02T11:32:06.910Z,42.40
2018-05-02T11:34:35.080Z,42.70
2018-05-02T11:37:03.254Z,43.40
2018-05-02T11:39:33.202Z,42.80
2018-05-02T11:42:02.148Z,41.70
2018-05-02T11:44:30.754Z,42.00
2018-05-02T11:46:59.278Z,40.30
2018-05-02T11:49:27.642Z,40.90
2018-05-02T11:51:56.223Z,42.80
2018-05-02T11:54:25.010Z,40.30
2018-05-02T11:56:53.170Z,39.90
2018-05-02T11:59:21.734Z,39.30
2018-05-02T12:01:50.335Z,39.80
2018-05-02T12:04:19.295Z,37.90
2018-05-02T12:06:47.502Z,38.00
2018-05-02T12:09:16.113Z,38.80
2018-05-02T12:11:44.562Z,38.80
2018-05-02T12:14:13.201Z,38.10
2018-05-02T12:16:41.582Z,38.50
2018-05-02T12:19:10.044Z,37.30
2018-05-02T12:21:38.426Z,37.80
2018-05-02T12:24:06.609Z,37.20
2018-05-02T12:26:36.130Z,36.70
2018-05-02T12:29:04.362Z,37.20
2018-05-02T12:31:32.553Z,36.20
2018-05-02T12:34:00.988Z,36.80
2018-05-02T12:36:29.266Z,37.60
2018-05-02T12:38:57.830Z,37.30
2018-05-02T12:41:26.319Z,37.00
2018-05-02T12:43:54.508Z,36.60
2018-05-02T12:46:23.094Z,36.30
2018-05-02T12:48:51.231Z,36.70
2018-05-02T12:51:20.667Z,36.00
2018-05-02T12:53:49.089Z,35.90
2018-05-02T12:56:17.831Z,35.90
2018-05-02T12:58:46.141Z,35.60
2018-05-02T13:01:14.527Z,36.80
2018-05-02T13:03:43.190Z,37.20
2018-05-02T13:06:11.357Z,37.00
2018-05-02T13:08:39.929Z,37.50
2018-05-02T13:11:08.078Z,36.60
2018-05-02T13:13:36.354Z,36.10
2018-05-02T13:16:05.282Z,36.50
2018-05-02T13:18:33.463Z,36.40
2018-05-02T13:21:02.107Z,37.20
2018-05-02T13:23:30.626Z,35.40
2018-05-02T13:25:59.158Z,36.50
2018-05-02T13:28:27.343Z,36.80
2018-05-02T13:30:56.335Z,36.90
2018-05-02T13:33:24.767Z,36.30
2018-05-02T13:35:53.188Z,36.80
2018-05-02T13:38:21.819Z,37.30
2018-05-02T13:40:50.647Z,36.70
2018-05-02T13:43:19.914Z,36.60
2018-05-02T13:45:48.067Z,37.30
2018-05-02T13:48:17.175Z,36.90
2018-05-02T13:50:46.849Z,37.60
2018-05-02T13:53:15.039Z,35.10
2018-05-02T13:55:43.218Z,36.20
2018-05-02T13:58:11.412Z,35.90
2018-05-02T14:00:40.640Z,36.70
2018-05-02T14:03:09.269Z,36.90
2018-05-02T14:05:37.422Z,36.40
2018-05-02T14:08:06.973Z,36.30
2018-05-02T14:10:35.917Z,35.70
2018-05-02T14:13:05.327Z,34.30
2018-05-02T14:15:34.287Z,35.00
2018-05-02T14:18:03.450Z,35.70
2018-05-02T14:20:32.812Z,35.00
2018-05-02T14:23:02.073Z,35.50
2018-05-02T14:25:30.595Z,34.50
2018-05-02T14:27:59.198Z,35.20
2018-05-02T14:30:28.260Z,34.30
2018-05-02T14:32:56.549Z,34.50
2018-05-02T14:35:24.875Z,34.90
2018-05-02T14:37:53.054Z,34.30
2018-05-02T14:40:21.285Z,34.00
2018-05-02T14:42:49.960Z,34.60
2018-05-02T14:45:18.471Z,33.60
2018-05-02T14:47:46.803Z,34.50
2018-05-02T14:50:15.538Z,33.60
2018-05-02T14:52:44.063Z,34.40
2018-05-02T14:55:12.962Z,33.50
2018-05-02T14:57:41.147Z,32.10
2018-05-02T15:00:09.833Z,32.80
2018-05-02T15:02:38.338Z,30.80
2018-05-02T15:05:06.900Z,31.40
2018-05-02T15:07:35.046Z,32.00
2018-05-02T15:10:03.258Z,30.00
2018-05-02T15:12:32.061Z,30.10
2018-05-02T15:15:00.471Z,29.80
2018-05-02T15:17:29.214Z,30.00
2018-05-02T15:19:57.601Z,29.40
2018-05-02T15:22:26.161Z,29.60
2018-05-02T15:24:56.985Z,30.00
2018-05-02T15:27:25.186Z,30.10
2018-05-02T15:29:53.379Z,29.40
2018-05-02T15:32:22.006Z,29.70
2018-05-02T15:34:50.191Z,29.00
2018-05-02T15:37:18.673Z,28.70
2018-05-02T15:39:46.927Z,28.70
2018-05-02T15:42:15.444Z,29.10
2018-05-02T15:44:44.059Z,29.20
2018-05-02T15:47:13.403Z,29.00
2018-05-02T15:49:42.227Z,27.70
2018-05-02T15:52:11.382Z,28.00
2018-05-02T15:54:40.219Z,28.00
2018-05-02T15:57:09.385Z,28.30
2018-05-02T15:59:38.400Z,27.70
2018-05-02T16:02:08.312Z,26.80
2018-05-02T16:04:36.843Z,28.10
2018-05-02T16:07:05.049Z,27.30
2018-05-02T16:09:36.136Z,29.90
2018-05-02T16:12:04.787Z,28.80
2018-05-02T16:14:33.000Z,29.30
2018-05-02T16:17:01.631Z,28.00
2018-05-02T16:19:30.716Z,28.40
2018-05-02T16:21:59.162Z,29.60
2018-05-02T16:24:28.076Z,29.00
2018-05-02T16:26:56.903Z,29.50
2018-05-02T16:29:25.741Z,29.40
2018-05-02T16:31:53.942Z,29.20
2018-05-02T16:34:22.119Z,29.60
2018-05-02T16:36:50.374Z,29.00
2018-05-02T16:39:19.021Z,29.50
2018-05-02T16:41:47.519Z,30.00
2018-05-02T16:44:16.073Z,30.20
2018-05-02T16:46:44.220Z,30.90
2018-05-02T16:49:13.332Z,30.50
2018-05-02T16:51:41.822Z,31.60
2018-05-02T16:54:10.278Z,31.60
2018-05-02T16:56:39.456Z,32.20
2018-05-02T16:59:07.918Z,33.60
2018-05-02T17:01:36.107Z,33.60
2018-05-02T17:04:04.778Z,33.70
2018-05-02T17:06:32.844Z,34.00
2018-05-02T17:09:01.840Z,34.40
2018-05-02T17:11:30.024Z,35.00
2018-05-02T17:13:58.211Z,35.10
2018-05-02T17:16:28.038Z,35.80
2018-05-02T17:18:57.311Z,37.00
2018-05-02T17:21:26.139Z,37.00
2018-05-02T17:23:54.572Z,36.60
2018-05-02T17:26:23.828Z,36.00
2018-05-02T17:28:52.654Z,36.00
2018-05-02T17:31:21.883Z,35.80
2018-05-02T17:33:50.152Z,36.50
2018-05-02T17:36:20.008Z,37.50
2018-05-02T17:38:49.485Z,37.40
2018-05-02T17:41:18.119Z,37.30
2018-05-02T17:43:46.258Z,37.80
2018-05-02T17:46:14.853Z,38.30
2018-05-02T17:48:43.483Z,38.80
2018-05-02T17:51:11.871Z,38.10
2018-05-02T17:53:40.731Z,38.00
2018-05-02T17:56:08.915Z,38.10
2018-05-02T17:58:37.110Z,38.80
2018-05-02T18:01:06.426Z,39.00
2018-05-02T18:03:35.054Z,39.30
2018-05-02T18:06:04.102Z,39.70
2018-05-02T18:08:33.243Z,39.60
2018-05-02T18:11:02.227Z,39.30
2018-05-02T18:13:32.802Z,40.40
2018-05-02T18:16:02.215Z,41.10
2018-05-02T18:18:30.803Z,41.10
2018-05-02T18:20:58.975Z,39.20
2018-05-02T18:23:27.437Z,39.80
2018-05-02T18:25:56.277Z,41.30
2018-05-02T18:28:24.660Z,39.90
2018-05-02T18:30:53.738Z,39.30
2018-05-02T18:33:21.957Z,40.30
2018-05-02T18:35:50.117Z,41.10
2018-05-02T18:38:18.591Z,40.90
2018-05-02T18:40:47.221Z,41.50
2018-05-02T18:43:15.530Z,41.00
2018-05-02T18:45:44.063Z,41.70
2018-05-02T18:48:13.203Z,42.30
2018-05-02T18:50:42.183Z,42.50
2018-05-02T18:53:12.185Z,42.70
2018-05-02T18:55:40.314Z,42.40
2018-05-02T18:58:08.989Z,42.70
2018-05-02T19:00:37.135Z,43.20
2018-05-02T19:03:05.336Z,43.00
2018-05-02T19:05:35.093Z,43.90
2018-05-02T19:08:03.326Z,43.80
2018-05-02T19:10:32.547Z,44.20
2018-05-02T19:13:00.978Z,43.80
2018-05-02T19:15:29.202Z,44.30
2018-05-02T19:18:03.214Z,43.70
2018-05-02T19:20:37.764Z,44.10
2018-05-02T19:23:06.974Z,44.80
2018-05-02T19:25:42.721Z,45.00
2018-05-02T19:28:10.888Z,43.80
2018-05-02T19:30:39.982Z,44.00
2018-05-02T19:33:13.791Z,44.60
2018-05-02T19:35:42.990Z,45.10
2018-05-02T19:38:11.582Z,45.60
2018-05-02T19:40:46.499Z,45.40
2018-05-02T19:43:20.747Z,45.10
2018-05-02T19:45:48.930Z,45.60
2018-05-02T19:48:18.775Z,46.00
2018-05-02T19:53:48.205Z,45.70
2018-05-02T19:56:16.406Z,46.60
2018-05-02T19:58:44.943Z,47.10
2018-05-02T20:01:19.109Z,48.10
2018-05-02T20:03:47.281Z,47.30
2018-05-02T20:06:15.850Z,47.20
2018-05-02T20:08:49.998Z,47.90
2018-05-02T20:11:24.059Z,48.50
2018-05-02T20:13:57.996Z,48.40
2018-05-02T20:16:26.452Z,48.80
2018-05-02T20:18:55.085Z,48.70
2018-05-02T20:21:23.256Z,49.50
2018-05-02T20:23:53.272Z,49.20
2018-05-02T20:26:21.807Z,49.60
2018-05-02T20:28:49.974Z,50.10
2018-05-02T20:31:18.150Z,50.30
2018-05-02T20:33:47.792Z,51.50
2018-05-02T20:36:17.022Z,51.40
2018-05-02T20:38:45.651Z,50.90
2018-05-02T20:41:14.110Z,51.00
2018-05-02T20:43:42.275Z,51.90
2018-05-02T20:46:10.914Z,52.50
2018-05-02T20:48:40.105Z,52.80
2018-05-02T20:51:08.299Z,53.50
2018-05-02T20:53:36.951Z,53.50
2018-05-02T20:56:05.094Z,54.40
2018-05-02T20:58:33.751Z,53.40
2018-05-02T21:01:01.944Z,53.50
2018-05-02T21:03:30.527Z,54.40
2018-05-02T21:06:00.517Z,55.10
2018-05-02T21:08:29.146Z,55.40
2018-05-02T21:10:57.295Z,55.40
2018-05-02T21:13:25.779Z,56.20
2018-05-02T21:15:54.172Z,56.10
2018-05-02T21:18:22.350Z,56.90
2018-05-02T21:20:50.938Z,57.00
2018-05-02T21:23:19.327Z,57.60
2018-05-02T21:25:48.498Z,57.90
2018-05-02T21:28:17.103Z,57.80
2018-05-02T21:30:46.468Z,58.10
2018-05-02T21:33:15.134Z,58.90
2018-05-02T21:35:43.279Z,58.90
2018-05-02T21:38:11.976Z,59.30
2018-05-02T21:40:40.518Z,58.80
2018-05-02T21:43:08.922Z,58.30
2018-05-02T21:45:37.079Z,55.10
2018-05-02T21:48:05.543Z,54.80
2018-05-02T21:50:33.977Z,55.30
2018-05-02T21:53:02.251Z,52.50
2018-05-02T21:55:30.923Z,52.70
2018-05-02T21:57:59.075Z,51.80
2018-05-02T22:00:28.288Z,52.10
2018-05-02T22:02:56.677Z,52.30
2018-05-02T22:05:25.159Z,52.80
2018-05-02T22:07:54.002Z,51.70
2018-05-02T22:10:22.951Z,52.00
2018-05-02T22:12:52.159Z,51.90
2018-05-02T22:15:20.347Z,51.90
2018-05-02T22:17:48.770Z,50.80
2018-05-02T22:20:16.956Z,50.50
2018-05-02T22:22:46.586Z,50.60
2018-05-02T22:25:15.007Z,50.70
2018-05-02T22:27:43.706Z,50.50
2018-05-02T22:30:11.910Z,50.80
2018-05-02T22:32:40.794Z,49.60
2018-05-02T22:35:09.620Z,50.30
2018-05-02T22:37:38.994Z,49.40
2018-05-02T22:40:07.139Z,49.90
2018-05-02T22:42:35.319Z,49.90
2018-05-02T22:45:03.943Z,49.60
2018-05-02T22:47:32.082Z,49.30
2018-05-02T22:50:01.035Z,49.50
2018-05-02T22:52:29.217Z,49.10
2018-05-02T22:54:58.567Z,49.00
2018-05-02T22:57:26.988Z,48.90
2018-05-02T22:59:58.011Z,50.00
2018-05-02T23:02:26.194Z,49.30
2018-05-02T23:04:55.266Z,49.30
2018-05-02T23:07:23.770Z,49.50
2018-05-02T23:09:52.215Z,49.30
2018-05-02T23:12:20.822Z,49.60
2018-05-02T23:14:49.892Z,49.50
2018-05-02T23:17:18.087Z,50.30
2018-05-02T23:19:46.748Z,50.80
2018-05-02T23:22:15.575Z,50.70
2018-05-02T23:24:43.751Z,50.60
2018-05-02T23:27:12.245Z,50.90
2018-05-02T23:29:41.926Z,51.40
2018-05-02T23:32:11.465Z,51.70
2018-05-02T23:34:39.991Z,51.00
2018-05-02T23:37:08.318Z,50.50
2018-05-02T23:39:37.238Z,50.60
2018-05-02T23:42:05.743Z,50.50
2018-05-02T23:44:34.198Z,51.10
2018-05-02T23:47:02.606Z,51.30
2018-05-02T23:49:31.136Z,51.30
2018-05-02T23:51:59.314Z,51.50
2018-05-02T23:54:27.883Z,52.90
2018-05-02T23:56:57.870Z,55.20
2018-05-02T23:59:26.118Z,55.40
